Time;durP1;ratioP1;P1;durP2;ratioP2;P2;SDS_P1;SDS_P2;PMS_P1;PMS_P2;Temp;Humidity;BMP_temperature;BMP_pressure;BME280_temperature;BME280_humidity;BME280_pressure;Samples;Min_cycle;Max_cycle;Signal;HPM_P1;HPM_P2
2023/04/30 00:01:29;;;;;;;18.50;15.33;;;;;;;;;;5038068;28;20204;-71
2023/04/30 00:03:56;;;;;;;20.33;16.70;;;;;;;;;;5042803;28;20206;-70
2023/04/30 00:06:23;;;;;;;18.50;15.40;;;;;;;;;;5039326;28;20210;-70
2023/04/30 00:08:50;;;;;;;17.53;15.67;;;;;;;;;;5044264;28;20211;-70
2023/04/30 00:11:17;;;;;;;20.07;16.47;;;;;;;;;;5038158;28;20211;-71
2023/04/30 00:13:45;;;;;;;18.83;14.80;;;;;;;;;;5038694;28;20238;-71
2023/04/30 00:16:13;;;;;;;17.33;14.37;;;;;;;;;;5040434;28;20203;-71
2023/04/30 00:18:40;;;;;;;17.50;15.37;;;;;;;;;;5038276;28;20208;-71
2023/04/30 00:21:07;;;;;;;17.50;15.27;;;;;;;;;;5039522;28;20223;-70
2023/04/30 00:23:34;;;;;;;18.93;14.90;;;;;;;;;;5039986;28;20200;-71
2023/04/30 00:26:02;;;;;;;20.37;17.23;;;;;;;;;;5042142;28;20215;-71
2023/04/30 00:28:29;;;;;;;19.50;16.63;;;;;;;;;;5037972;28;20226;-70
2023/04/30 00:30:56;;;;;;;22.17;17.10;;;;;;;;;;5038139;28;20212;-71
2023/04/30 00:33:25;;;;;;;20.63;17.80;;;;;;;;;;5039928;28;20291;-71
2023/04/30 00:35:52;;;;;;;22.88;18.27;;;;;;;;;;5036088;28;20214;-71
2023/04/30 00:38:19;;;;;;;25.42;19.77;;;;;;;;;;5046103;28;20200;-71
2023/04/30 00:40:46;;;;;;;24.00;19.80;;;;;;;;;;5045396;28;20215;-71
2023/04/30 00:43:14;;;;;;;22.80;19.17;;;;;;;;;;5046619;28;20234;-70
2023/04/30 00:45:41;;;;;;;25.87;21.13;;;;;;;;;;5041520;28;20200;-71
2023/04/30 00:48:08;;;;;;;23.30;18.83;;;;;;;;;;5048948;28;20204;-71
2023/04/30 00:50:37;;;;;;;27.07;20.97;;;;;;;;;;5045223;28;20199;-70
2023/04/30 00:53:05;;;;;;;23.40;18.60;;;;;;;;;;5043273;28;20215;-71
2023/04/30 00:55:32;;;;;;;24.50;18.77;;;;;;;;;;5041845;28;20227;-70
2023/04/30 00:57:59;;;;;;;22.93;19.17;;;;;;;;;;5047249;28;20203;-71
2023/04/30 01:00:27;;;;;;;24.93;20.40;;;;;;;;;;5042301;28;20204;-70
2023/04/30 01:02:54;;;;;;;23.60;18.30;;;;;;;;;;5044191;28;20204;-71
2023/04/30 01:05:22;;;;;;;25.30;19.00;;;;;;;;;;5040452;28;20203;-71
2023/04/30 01:07:51;;;;;;;22.90;19.27;;;;;;;;;;5042164;28;20261;-71
2023/04/30 01:10:19;;;;;;;23.97;19.33;;;;;;;;;;5041463;28;20208;-70
2023/04/30 01:12:50;;;;;;;26.77;19.63;;;;;;;;;;5042595;28;20204;-70
2023/04/30 01:15:22;;;;;;;21.57;19.03;;;;;;;;;;5040298;28;20230;-71
2023/04/30 01:17:54;;;;;;;25.27;20.10;;;;;;;;;;5042475;28;20246;-71
2023/04/30 01:20:21;;;;;;;25.37;20.40;;;;;;;;;;5044549;28;20200;-70
2023/04/30 01:22:53;;;;;;;22.80;19.17;;;;;;;;;;5040379;28;20203;-71
2023/04/30 01:25:36;;;;;;;25.97;19.53;;;;;;;;;;5044172;28;20204;-71
2023/04/30 01:28:06;;;;;;;26.13;20.37;;;;;;;;;;5044878;28;20211;-70
2023/04/30 01:30:33;;;;;;;22.60;18.93;;;;;;;;;;5045865;28;20199;-71
2023/04/30 01:33:00;;;;;;;23.53;19.17;;;;;;;;;;5047163;28;20203;-70
2023/04/30 01:35:35;;;;;;;23.23;19.20;;;;;;;;;;5044358;28;20230;-71
2023/04/30 01:38:05;;;;;;;25.90;19.47;;;;;;;;;;5041414;28;20196;-70
2023/04/30 01:40:37;;;;;;;23.17;19.20;;;;;;;;;;5038606;28;20210;-70
2023/04/30 01:43:11;;;;;;;25.30;20.00;;;;;;;;;;5042734;28;20231;-70
2023/04/30 01:45:46;;;;;;;25.77;19.90;;;;;;;;;;5039758;28;20214;-70
2023/04/30 01:48:19;;;;;;;24.77;20.23;;;;;;;;;;5040847;28;20211;-71
2023/04/30 01:50:49;;;;;;;26.53;21.10;;;;;;;;;;5042019;28;20208;-70
2023/04/30 01:53:19;;;;;;;24.80;20.70;;;;;;;;;;5041678;28;20207;-71
2023/04/30 01:55:49;;;;;;;24.60;20.20;;;;;;;;;;5044018;28;20222;-70
2023/04/30 01:58:18;;;;;;;25.07;20.10;;;;;;;;;;5041644;28;20204;-70
2023/04/30 02:00:45;;;;;;;25.23;20.33;;;;;;;;;;5040496;28;20215;-71
2023/04/30 02:03:13;;;;;;;27.30;19.77;;;;;;;;;;5044459;28;20208;-71
2023/04/30 02:05:40;;;;;;;25.63;20.57;;;;;;;;;;5040554;28;20207;-70
2023/04/30 02:08:07;;;;;;;26.00;20.53;;;;;;;;;;5043772;28;20231;-70
2023/04/30 02:10:35;;;;;;;23.77;19.37;;;;;;;;;;5043051;28;20205;-71
2023/04/30 02:13:02;;;;;;;24.43;20.07;;;;;;;;;;5042919;28;20230;-71
2023/04/30 02:15:30;;;;;;;26.63;20.03;;;;;;;;;;5040729;28;20215;-71
2023/04/30 02:17:58;;;;;;;27.20;20.67;;;;;;;;;;5042670;28;20203;-71
2023/04/30 02:20:25;;;;;;;24.20;20.17;;;;;;;;;;5041069;28;20223;-71
2023/04/30 02:22:52;;;;;;;25.33;20.57;;;;;;;;;;5042930;28;20212;-71
2023/04/30 02:25:19;;;;;;;26.63;21.43;;;;;;;;;;5042687;28;20212;-71
2023/04/30 02:27:46;;;;;;;25.63;20.53;;;;;;;;;;5041281;28;20230;-71
2023/04/30 02:30:13;;;;;;;28.80;21.63;;;;;;;;;;5043118;28;20206;-71
2023/04/30 02:32:42;;;;;;;24.47;21.63;;;;;;;;;;5048584;28;20210;-71
2023/04/30 02:35:09;;;;;;;25.97;20.43;;;;;;;;;;5039290;28;20234;-71
2023/04/30 02:37:36;;;;;;;25.93;21.53;;;;;;;;;;5039845;28;20200;-71
2023/04/30 02:40:04;;;;;;;23.73;19.53;;;;;;;;;;5044128;28;20204;-71
2023/04/30 02:42:31;;;;;;;26.50;19.47;;;;;;;;;;5038573;28;20208;-70
2023/04/30 02:44:58;;;;;;;25.17;20.63;;;;;;;;;;5041025;28;20204;-71
2023/04/30 02:47:25;;;;;;;25.53;21.37;;;;;;;;;;5042562;28;20195;-71
2023/04/30 02:49:54;;;;;;;24.20;19.97;;;;;;;;;;5041421;28;20204;-71
2023/04/30 02:52:21;;;;;;;26.83;21.37;;;;;;;;;;5042643;28;20246;-71
2023/04/30 02:54:48;;;;;;;25.40;21.00;;;;;;;;;;5040310;28;20230;-71
2023/04/30 02:57:15;;;;;;;24.70;21.27;;;;;;;;;;5041957;28;20215;-71
2023/04/30 02:59:44;;;;;;;24.97;20.53;;;;;;;;;;5039566;28;20199;-71
2023/04/30 03:02:12;;;;;;;27.30;21.40;;;;;;;;;;5044257;28;20207;-72
2023/04/30 03:04:39;;;;;;;26.33;21.23;;;;;;;;;;5043268;28;20218;-71
2023/04/30 03:07:07;;;;;;;25.97;20.20;;;;;;;;;;5039280;28;20211;-71
2023/04/30 03:09:34;;;;;;;24.03;21.43;;;;;;;;;;5042456;28;20212;-71
2023/04/30 03:12:02;;;;;;;27.60;21.67;;;;;;;;;;5041521;28;20204;-71
2023/04/30 03:14:29;;;;;;;25.87;22.27;;;;;;;;;;5041433;28;20204;-71
2023/04/30 03:16:56;;;;;;;23.23;20.53;;;;;;;;;;5043547;28;20208;-71
2023/04/30 03:19:24;;;;;;;26.20;21.13;;;;;;;;;;5043234;28;20294;-71
2023/04/30 03:21:51;;;;;;;27.70;21.97;;;;;;;;;;5042106;28;20210;-71
2023/04/30 03:24:20;;;;;;;27.00;20.77;;;;;;;;;;5038817;28;20231;-71
2023/04/30 03:26:47;;;;;;;25.07;21.17;;;;;;;;;;5037316;28;20204;-70
2023/04/30 03:29:14;;;;;;;24.97;21.70;;;;;;;;;;5044268;28;20200;-69
2023/04/30 03:31:42;;;;;;;23.00;20.10;;;;;;;;;;5041070;28;20242;-70
2023/04/30 03:34:09;;;;;;;27.60;22.67;;;;;;;;;;5040374;28;20208;-69
2023/04/30 03:36:36;;;;;;;25.00;21.43;;;;;;;;;;5040066;28;20234;-69
2023/04/30 03:39:06;;;;;;;25.83;22.00;;;;;;;;;;5038764;28;20231;-69
2023/04/30 03:41:35;;;;;;;23.53;20.50;;;;;;;;;;5039472;28;20214;-69
2023/04/30 03:44:02;;;;;;;25.80;22.87;;;;;;;;;;5038298;28;20227;-69
2023/04/30 03:46:29;;;;;;;27.47;23.10;;;;;;;;;;5038793;28;20200;-69
2023/04/30 03:48:56;;;;;;;25.77;22.40;;;;;;;;;;5039517;28;20215;-69
2023/04/30 03:51:23;;;;;;;23.90;21.13;;;;;;;;;;5038646;28;20215;-69
2023/04/30 03:53:51;;;;;;;25.43;22.17;;;;;;;;;;5036132;28;20199;-69
2023/04/30 03:56:18;;;;;;;26.23;21.47;;;;;;;;;;5038152;28;20235;-69
2023/04/30 03:58:46;;;;;;;26.17;21.53;;;;;;;;;;5036694;28;20211;-69
2023/04/30 04:01:13;;;;;;;28.80;23.47;;;;;;;;;;5038737;28;20260;-69
2023/04/30 04:03:41;;;;;;;26.90;22.20;;;;;;;;;;5037640;28;20200;-70
2023/04/30 04:06:08;;;;;;;26.43;22.70;;;;;;;;;;5041399;28;20208;-70
2023/04/30 04:08:36;;;;;;;28.40;22.73;;;;;;;;;;5037989;28;20204;-71
2023/04/30 04:11:03;;;;;;;23.43;20.37;;;;;;;;;;5037748;28;20266;-71
2023/04/30 04:13:30;;;;;;;26.07;22.17;;;;;;;;;;5039187;28;20203;-71
2023/04/30 04:15:59;;;;;;;27.37;23.57;;;;;;;;;;5036426;28;20222;-71
2023/04/30 04:18:26;;;;;;;26.17;22.47;;;;;;;;;;5040931;28;20199;-71
2023/04/30 04:20:53;;;;;;;24.27;20.83;;;;;;;;;;5035459;28;20203;-71
2023/04/30 04:23:20;;;;;;;29.37;22.73;;;;;;;;;;5039629;28;20199;-72
2023/04/30 04:25:48;;;;;;;27.17;22.83;;;;;;;;;;5042318;28;20211;-72
2023/04/30 04:28:15;;;;;;;28.60;24.13;;;;;;;;;;5037006;28;20204;-72
2023/04/30 04:30:43;;;;;;;27.27;22.83;;;;;;;;;;5038201;28;20211;-71
2023/04/30 04:33:11;;;;;;;28.70;24.63;;;;;;;;;;5039886;28;20199;-72
2023/04/30 04:35:38;;;;;;;28.73;23.83;;;;;;;;;;5036822;28;20310;-72
2023/04/30 04:38:06;;;;;;;29.97;24.70;;;;;;;;;;5039126;28;20199;-71
2023/04/30 04:40:34;;;;;;;25.33;22.63;;;;;;;;;;5040414;28;20207;-70
2023/04/30 04:43:01;;;;;;;28.00;24.67;;;;;;;;;;5035704;28;20266;-70
2023/04/30 04:45:28;;;;;;;29.37;25.47;;;;;;;;;;5039320;28;20215;-70
2023/04/30 04:47:55;;;;;;;27.87;24.87;;;;;;;;;;5043364;28;20203;-70
2023/04/30 04:50:24;;;;;;;26.27;23.00;;;;;;;;;;5042881;28;20208;-70
2023/04/30 04:52:51;;;;;;;33.27;26.57;;;;;;;;;;5041290;28;20211;-71
2023/04/30 04:55:19;;;;;;;28.73;25.40;;;;;;;;;;5042199;28;20223;-72
2023/04/30 04:57:46;;;;;;;26.73;23.57;;;;;;;;;;5039265;28;20290;-72
2023/04/30 05:00:13;;;;;;;26.00;23.00;;;;;;;;;;5041963;28;20204;-70
2023/04/30 05:02:40;;;;;;;29.37;25.57;;;;;;;;;;5039115;28;20203;-70
2023/04/30 05:05:08;;;;;;;27.10;23.30;;;;;;;;;;5036185;28;20204;-70
2023/04/30 05:07:36;;;;;;;28.37;23.43;;;;;;;;;;5043122;28;20203;-69
2023/04/30 05:10:04;;;;;;;32.60;26.03;;;;;;;;;;5040374;28;20200;-72
2023/04/30 05:12:31;;;;;;;31.07;25.13;;;;;;;;;;5041698;28;20212;-71
2023/04/30 05:14:58;;;;;;;30.20;25.83;;;;;;;;;;5037061;28;20196;-70
2023/04/30 05:17:25;;;;;;;29.83;24.80;;;;;;;;;;5036937;28;20230;-71
2023/04/30 05:19:53;;;;;;;29.00;25.37;;;;;;;;;;5036908;28;20200;-71
2023/04/30 05:22:20;;;;;;;28.07;24.03;;;;;;;;;;5042407;28;20240;-71
2023/04/30 05:24:51;;;;;;;29.67;24.20;;;;;;;;;;5043853;28;20197;-70
2023/04/30 05:27:18;;;;;;;27.83;24.80;;;;;;;;;;5046030;28;20215;-70
2023/04/30 05:29:46;;;;;;;28.47;24.17;;;;;;;;;;5045689;28;20191;-70
2023/04/30 05:32:13;;;;;;;32.13;25.67;;;;;;;;;;5041486;28;20212;-69
2023/04/30 05:34:40;;;;;;;27.07;23.17;;;;;;;;;;5041524;28;20204;-70
2023/04/30 05:37:07;;;;;;;26.83;23.40;;;;;;;;;;5041537;28;20212;-70
2023/04/30 05:39:34;;;;;;;29.07;25.33;;;;;;;;;;5041956;28;20200;-69
2023/04/30 05:42:02;;;;;;;28.33;23.07;;;;;;;;;;5042309;28;20204;-69
2023/04/30 05:44:30;;;;;;;26.83;22.70;;;;;;;;;;5040963;28;20243;-69
2023/04/30 05:46:57;;;;;;;30.63;25.40;;;;;;;;;;5041977;28;20199;-70
2023/04/30 05:49:24;;;;;;;27.90;24.13;;;;;;;;;;5043752;28;20204;-70
2023/04/30 05:51:51;;;;;;;24.23;21.73;;;;;;;;;;5041582;28;20291;-70
2023/04/30 05:54:18;;;;;;;27.47;23.60;;;;;;;;;;5042738;28;20204;-70
2023/04/30 05:56:45;;;;;;;26.83;22.77;;;;;;;;;;5042955;28;20209;-69
2023/04/30 05:59:14;;;;;;;24.97;21.90;;;;;;;;;;5044358;28;20215;-70
2023/04/30 06:01:41;;;;;;;25.07;22.37;;;;;;;;;;5042120;28;20286;-71
2023/04/30 06:04:08;;;;;;;27.70;22.43;;;;;;;;;;5042623;28;20200;-70
2023/04/30 06:06:35;;;;;;;26.53;23.00;;;;;;;;;;5039330;28;20203;-69
2023/04/30 06:09:02;;;;;;;24.83;22.10;;;;;;;;;;5042695;28;20212;-69
2023/04/30 06:11:30;;;;;;;25.83;23.03;;;;;;;;;;5044768;28;20214;-69
2023/04/30 06:13:57;;;;;;;24.30;21.67;;;;;;;;;;5041952;28;20204;-70
2023/04/30 06:16:25;;;;;;;24.70;22.00;;;;;;;;;;5038711;28;20222;-69
2023/04/30 06:18:52;;;;;;;23.57;21.10;;;;;;;;;;5040062;28;20207;-70
2023/04/30 06:21:20;;;;;;;23.33;20.57;;;;;;;;;;5040035;28;20204;-70
2023/04/30 06:23:47;;;;;;;21.87;19.50;;;;;;;;;;5039515;28;20200;-70
2023/04/30 06:26:14;;;;;;;22.97;19.93;;;;;;;;;;5043325;28;20212;-69
2023/04/30 06:28:41;;;;;;;22.40;19.90;;;;;;;;;;5041828;28;20215;-69
2023/04/30 06:31:08;;;;;;;22.47;20.17;;;;;;;;;;5041886;28;20223;-71
2023/04/30 06:33:37;;;;;;;23.50;19.17;;;;;;;;;;5041236;28;20196;-70
2023/04/30 06:36:04;;;;;;;22.73;20.07;;;;;;;;;;5042037;28;20215;-69
2023/04/30 06:38:32;;;;;;;22.03;19.07;;;;;;;;;;5044448;28;20199;-68
2023/04/30 06:40:59;;;;;;;20.97;18.73;;;;;;;;;;5042942;28;20196;-69
2023/04/30 06:43:26;;;;;;;20.63;18.53;;;;;;;;;;5039933;28;20243;-69
2023/04/30 06:45:53;;;;;;;19.13;17.20;;;;;;;;;;5045060;28;20196;-68
2023/04/30 06:48:20;;;;;;;19.20;17.20;;;;;;;;;;5041003;28;20207;-68
2023/04/30 06:50:48;;;;;;;19.75;17.65;;;;;;;;;;5041536;28;20199;-68
2023/04/30 06:53:16;;;;;;;18.17;15.85;;;;;;;;;;5037534;28;20200;-69
2023/04/30 06:55:43;;;;;;;17.60;15.75;;;;;;;;;;5043362;28;20211;-70
2023/04/30 06:58:10;;;;;;;17.30;15.60;;;;;;;;;;5040081;28;20199;-69
2023/04/30 07:00:37;;;;;;;17.30;15.50;;;;;;;;;;5044653;28;20211;-68
2023/04/30 07:03:04;;;;;;;19.00;15.45;;;;;;;;;;5042286;28;20200;-68
2023/04/30 07:05:31;;;;;;;16.42;14.77;;;;;;;;;;5040218;28;20204;-68
2023/04/30 07:08:02;;;;;;;17.25;15.55;;;;;;;;;;5040891;28;20200;-67
2023/04/30 07:10:30;;;;;;;16.55;14.85;;;;;;;;;;5044246;28;20281;-67
2023/04/30 07:12:57;;;;;;;15.77;14.10;;;;;;;;;;5043454;28;20220;-67
2023/04/30 07:15:24;;;;;;;16.73;13.90;;;;;;;;;;5050624;28;20199;-68
2023/04/30 07:17:51;;;;;;;16.27;14.32;;;;;;;;;;5051274;28;20226;-68
2023/04/30 07:20:18;;;;;;;14.68;13.18;;;;;;;;;;5044079;28;20207;-69
2023/04/30 07:22:45;;;;;;;14.77;13.27;;;;;;;;;;5046593;28;20217;-67
2023/04/30 07:25:14;;;;;;;15.27;13.77;;;;;;;;;;5047926;28;20269;-68
2023/04/30 07:27:41;;;;;;;14.25;12.85;;;;;;;;;;5038844;28;20200;-67
2023/04/30 07:30:09;;;;;;;14.60;12.70;;;;;;;;;;5033851;28;20207;-67
2023/04/30 07:32:37;;;;;;;13.15;11.07;;;;;;;;;;5036126;28;20227;-68
2023/04/30 07:35:05;;;;;;;12.77;11.50;;;;;;;;;;5039308;28;20199;-68
2023/04/30 07:37:32;;;;;;;12.20;11.00;;;;;;;;;;5041201;28;20215;-67
2023/04/30 07:39:59;;;;;;;11.07;9.95;;;;;;;;;;5032843;28;20207;-68
2023/04/30 07:42:28;;;;;;;11.10;9.93;;;;;;;;;;5038750;28;20266;-67
2023/04/30 07:44:55;;;;;;;11.30;9.63;;;;;;;;;;5039823;28;20214;-68
2023/04/30 07:47:22;;;;;;;10.68;9.57;;;;;;;;;;5036819;28;20192;-68
2023/04/30 07:49:49;;;;;;;9.73;8.65;;;;;;;;;;5041636;28;20216;-67
2023/04/30 07:52:16;;;;;;;8.75;7.85;;;;;;;;;;5040363;28;20203;-67
2023/04/30 07:54:43;;;;;;;9.02;8.13;;;;;;;;;;5041645;28;20216;-67
2023/04/30 07:57:11;;;;;;;8.52;7.72;;;;;;;;;;5035672;28;20228;-67
2023/04/30 07:59:40;;;;;;;9.10;7.13;;;;;;;;;;5040162;28;20207;-68
2023/04/30 08:02:07;;;;;;;7.80;7.00;;;;;;;;;;5039400;28;20200;-67
2023/04/30 08:04:36;;;;;;;9.35;7.30;;;;;;;;;;5039930;28;20200;-67
2023/04/30 08:07:08;;;;;;;7.35;6.70;;;;;;;;;;5038473;28;20227;-67
2023/04/30 08:09:36;;;;;;;8.13;6.45;;;;;;;;;;5039545;28;20196;-66
2023/04/30 08:12:03;;;;;;;6.57;5.55;;;;;;;;;;5039196;28;20208;-67
2023/04/30 08:14:31;;;;;;;5.82;5.32;;;;;;;;;;5040356;28;20206;-66
2023/04/30 08:17:03;;;;;;;6.25;5.72;;;;;;;;;;5043874;28;20215;-67
2023/04/30 08:19:31;;;;;;;7.43;5.88;;;;;;;;;;5042818;28;20203;-67
2023/04/30 08:22:00;;;;;;;6.22;5.05;;;;;;;;;;5033638;28;20211;-66
2023/04/30 08:24:28;;;;;;;5.28;4.82;;;;;;;;;;5033008;28;20238;-67
2023/04/30 08:26:56;;;;;;;5.10;4.65;;;;;;;;;;5038875;28;20200;-69
2023/04/30 08:29:24;;;;;;;5.80;5.28;;;;;;;;;;5042173;28;20215;-67
2023/04/30 08:31:54;;;;;;;4.80;4.40;;;;;;;;;;5042289;28;20218;-67
2023/04/30 08:34:23;;;;;;;5.78;4.82;;;;;;;;;;5048911;28;20200;-67
2023/04/30 08:36:54;;;;;;;6.22;4.88;;;;;;;;;;5038485;28;20243;-67
2023/04/30 08:39:24;;;;;;;5.20;4.15;;;;;;;;;;5041180;28;20207;-67
2023/04/30 08:41:56;;;;;;;4.55;4.15;;;;;;;;;;5038895;28;20207;-67
2023/04/30 08:44:24;;;;;;;4.75;4.35;;;;;;;;;;5040322;28;20250;-67
2023/04/30 08:46:54;;;;;;;4.63;4.22;;;;;;;;;;5039753;28;20206;-67
2023/04/30 08:49:23;;;;;;;5.05;4.25;;;;;;;;;;5043501;28;20245;-67
2023/04/30 08:51:51;;;;;;;4.50;3.80;;;;;;;;;;5042591;28;20201;-68
2023/04/30 08:54:27;;;;;;;3.55;3.25;;;;;;;;;;5041366;28;20203;-68
2023/04/30 08:56:56;;;;;;;3.42;3.10;;;;;;;;;;5039682;28;20229;-67
2023/04/30 08:59:27;;;;;;;4.10;2.90;;;;;;;;;;5044940;28;20211;-68
2023/04/30 09:01:55;;;;;;;3.72;2.72;;;;;;;;;;5044894;28;20254;-68
2023/04/30 09:04:29;;;;;;;3.15;2.45;;;;;;;;;;5043922;28;20207;-68
2023/04/30 09:06:58;;;;;;;3.22;2.53;;;;;;;;;;5049411;28;20196;-68
2023/04/30 09:09:29;;;;;;;4.00;2.78;;;;;;;;;;5046191;28;20249;-67
2023/04/30 09:12:12;;;;;;;2.75;2.55;;;;;;;;;;5045217;28;20200;-68
2023/04/30 09:14:40;;;;;;;2.50;2.20;;;;;;;;;;5048959;28;20260;-67
2023/04/30 09:17:10;;;;;;;4.55;2.47;;;;;;;;;;5046415;28;20305;-67
2023/04/30 09:19:39;;;;;;;2.85;2.08;;;;;;;;;;5045054;28;20199;-68
2023/04/30 09:22:20;;;;;;;2.33;2.13;;;;;;;;;;5052480;28;20200;-67
2023/04/30 09:24:52;;;;;;;2.42;2.20;;;;;;;;;;5043830;28;20269;-67
2023/04/30 09:27:23;;;;;;;2.67;1.90;;;;;;;;;;5045686;28;20291;-67
2023/04/30 09:29:50;;;;;;;1.95;1.85;;;;;;;;;;5052922;28;20245;-67
2023/04/30 09:32:21;;;;;;;3.63;2.03;;;;;;;;;;5040232;28;20208;-68
2023/04/30 09:34:52;;;;;;;2.40;2.20;;;;;;;;;;5046927;28;20204;-69
2023/04/30 09:37:21;;;;;;;3.08;2.00;;;;;;;;;;5040728;28;20235;-69
2023/04/30 09:39:50;;;;;;;3.45;2.10;;;;;;;;;;5045094;28;20222;-68
2023/04/30 09:42:18;;;;;;;2.63;2.20;;;;;;;;;;5045041;28;20211;-67
2023/04/30 09:44:49;;;;;;;2.80;2.10;;;;;;;;;;5044393;28;20231;-68
2023/04/30 09:47:20;;;;;;;2.22;1.90;;;;;;;;;;5039862;28;20245;-68
2023/04/30 09:49:50;;;;;;;2.10;2.00;;;;;;;;;;5045613;28;20204;-68
2023/04/30 09:52:22;;;;;;;2.08;1.80;;;;;;;;;;5041617;28;20208;-68
2023/04/30 09:54:52;;;;;;;2.30;2.10;;;;;;;;;;5044009;28;20283;-68
2023/04/30 09:57:22;;;;;;;1.98;1.80;;;;;;;;;;5048711;28;20223;-68
2023/04/30 09:59:58;;;;;;;1.92;1.60;;;;;;;;;;5043460;28;20212;-68
2023/04/30 10:02:29;;;;;;;1.60;1.50;;;;;;;;;;5041932;28;20211;-69
2023/04/30 10:04:59;;;;;;;1.90;1.58;;;;;;;;;;5042222;28;20250;-68
2023/04/30 10:07:32;;;;;;;2.22;1.80;;;;;;;;;;5041744;28;20258;-68
2023/04/30 10:10:01;;;;;;;3.05;1.70;;;;;;;;;;5046137;28;20204;-68
2023/04/30 10:12:33;;;;;;;3.13;1.70;;;;;;;;;;5041932;28;20210;-68
2023/04/30 10:15:06;;;;;;;2.90;1.40;;;;;;;;;;5045957;28;20245;-68
2023/04/30 10:17:39;;;;;;;2.00;1.80;;;;;;;;;;5044431;28;20223;-69
2023/04/30 10:20:08;;;;;;;2.05;1.80;;;;;;;;;;5045753;28;20204;-68
2023/04/30 10:22:40;;;;;;;1.60;1.50;;;;;;;;;;5039091;28;20204;-67
2023/04/30 10:25:15;;;;;;;2.97;1.63;;;;;;;;;;5043467;28;20208;-69
2023/04/30 10:27:43;;;;;;;1.70;1.60;;;;;;;;;;5046266;28;20250;-68
2023/04/30 10:30:11;;;;;;;1.85;1.67;;;;;;;;;;5042110;28;20238;-68
2023/04/30 10:32:42;;;;;;;1.58;1.45;;;;;;;;;;5044994;28;20195;-67
2023/04/30 10:35:13;;;;;;;1.50;1.40;;;;;;;;;;5043739;28;20290;-68
2023/04/30 10:37:44;;;;;;;1.75;1.65;;;;;;;;;;5044626;28;20252;-68
2023/04/30 10:40:13;;;;;;;1.90;1.80;;;;;;;;;;5040250;28;20222;-68
2023/04/30 10:42:48;;;;;;;1.80;1.70;;;;;;;;;;5042677;28;20211;-66
2023/04/30 10:45:17;;;;;;;2.35;1.92;;;;;;;;;;5037018;28;20210;-69
2023/04/30 10:47:45;;;;;;;3.15;1.80;;;;;;;;;;5042793;28;20212;-66
2023/04/30 10:50:13;;;;;;;2.58;1.58;;;;;;;;;;5036118;28;20267;-68
2023/04/30 10:52:44;;;;;;;1.60;1.50;;;;;;;;;;5039719;28;20234;-68
2023/04/30 10:55:13;;;;;;;3.10;1.70;;;;;;;;;;5040616;28;20204;-68
2023/04/30 10:57:54;;;;;;;1.55;1.45;;;;;;;;;;5041485;28;20220;-65
2023/04/30 11:00:29;;;;;;;1.65;1.55;;;;;;;;;;5037763;28;20210;-70
2023/04/30 11:03:03;;;;;;;2.00;1.90;;;;;;;;;;5042389;28;20214;-69
2023/04/30 11:05:43;;;;;;;2.13;1.70;;;;;;;;;;5042029;28;20207;-69
2023/04/30 11:08:20;;;;;;;2.70;1.48;;;;;;;;;;5037026;28;20317;-70
2023/04/30 11:10:58;;;;;;;2.25;1.40;;;;;;;;;;5032811;28;20322;-69
2023/04/30 11:13:28;;;;;;;2.25;1.80;;;;;;;;;;5041498;28;20211;-70
2023/04/30 11:16:03;;;;;;;3.55;2.70;;;;;;;;;;5036827;28;20211;-67
2023/04/30 11:18:32;;;;;;;4.93;3.30;;;;;;;;;;5041791;28;20230;-67
2023/04/30 11:20:59;;;;;;;2.28;1.98;;;;;;;;;;5045652;28;20227;-68
2023/04/30 11:23:29;;;;;;;1.88;1.70;;;;;;;;;;5044020;28;20269;-67
2023/04/30 11:26:00;;;;;;;7.10;6.43;;;;;;;;;;5039011;28;20204;-67
2023/04/30 11:28:29;;;;;;;5.57;4.80;;;;;;;;;;5044503;28;20207;-67
2023/04/30 11:30:57;;;;;;;2.30;2.08;;;;;;;;;;5036952;28;20227;-67
2023/04/30 11:33:28;;;;;;;1.80;1.70;;;;;;;;;;5046064;28;20220;-68
2023/04/30 11:36:03;;;;;;;1.48;1.40;;;;;;;;;;5037355;28;20205;-67
2023/04/30 11:38:36;;;;;;;2.17;1.42;;;;;;;;;;5040492;28;20290;-68
2023/04/30 11:41:03;;;;;;;1.40;1.30;;;;;;;;;;5045894;28;20207;-68
2023/04/30 11:43:34;;;;;;;1.02;1.02;;;;;;;;;;5041952;28;20235;-69
2023/04/30 11:46:05;;;;;;;1.30;1.20;;;;;;;;;;5042802;28;20210;-67
2023/04/30 11:48:37;;;;;;;1.00;1.00;;;;;;;;;;5038427;28;20212;-67
2023/04/30 11:51:06;;;;;;;1.55;1.30;;;;;;;;;;5041330;28;20225;-67
2023/04/30 11:53:37;;;;;;;2.58;1.05;;;;;;;;;;5039592;28;20209;-67
2023/04/30 11:56:19;;;;;;;1.55;1.30;;;;;;;;;;5043551;28;20214;-68
2023/04/30 11:58:47;;;;;;;1.10;1.05;;;;;;;;;;5055657;28;20302;-67
2023/04/30 12:01:18;;;;;;;1.80;1.20;;;;;;;;;;5042002;28;20204;-67
2023/04/30 12:03:52;;;;;;;1.30;1.20;;;;;;;;;;5037110;28;20207;-67
2023/04/30 12:06:23;;;;;;;1.25;1.10;;;;;;;;;;5040954;28;20196;-68
2023/04/30 12:08:53;;;;;;;1.40;1.30;;;;;;;;;;5043575;28;20202;-67
2023/04/30 12:11:26;;;;;;;1.27;1.17;;;;;;;;;;5058228;28;20224;-67
2023/04/30 12:13:54;;;;;;;2.03;1.10;;;;;;;;;;5039326;28;20231;-67
2023/04/30 12:16:23;;;;;;;1.58;1.05;;;;;;;;;;5036313;28;20215;-69
2023/04/30 12:18:51;;;;;;;1.23;1.20;;;;;;;;;;5037954;28;20223;-67
2023/04/30 12:21:19;;;;;;;2.67;1.27;;;;;;;;;;5040163;28;20207;-67
2023/04/30 12:23:50;;;;;;;0.93;0.93;;;;;;;;;;5036644;28;20277;-68
2023/04/30 12:26:24;;;;;;;0.88;0.88;;;;;;;;;;5043342;28;20210;-67
2023/04/30 12:28:53;;;;;;;0.85;0.85;;;;;;;;;;5040479;28;20218;-68
2023/04/30 12:31:26;;;;;;;1.10;1.00;;;;;;;;;;5044846;28;20203;-67
2023/04/30 12:33:55;;;;;;;1.23;1.00;;;;;;;;;;5043645;28;20204;-68
2023/04/30 12:36:23;;;;;;;0.70;0.70;;;;;;;;;;5039534;28;20203;-67
2023/04/30 12:38:50;;;;;;;1.08;0.80;;;;;;;;;;5046590;28;20216;-68
2023/04/30 12:41:21;;;;;;;1.15;1.02;;;;;;;;;;5044251;28;20204;-68
2023/04/30 12:43:51;;;;;;;1.25;1.00;;;;;;;;;;5045072;28;20257;-67
2023/04/30 12:46:28;;;;;;;0.90;0.90;;;;;;;;;;5048087;28;20207;-66
2023/04/30 12:48:59;;;;;;;0.90;0.90;;;;;;;;;;5044914;28;20206;-67
2023/04/30 12:51:27;;;;;;;0.90;0.90;;;;;;;;;;5041908;28;20214;-67
2023/04/30 12:53:57;;;;;;;0.80;0.80;;;;;;;;;;5045104;28;20262;-68
2023/04/30 12:56:29;;;;;;;1.20;1.10;;;;;;;;;;5043090;28;20269;-68
2023/04/30 12:58:57;;;;;;;1.25;0.82;;;;;;;;;;5044443;28;20220;-69
2023/04/30 13:01:27;;;;;;;0.90;0.90;;;;;;;;;;5047575;28;20207;-67
2023/04/30 13:03:55;;;;;;;1.00;0.90;;;;;;;;;;5045907;28;20204;-68
2023/04/30 13:06:26;;;;;;;1.02;0.93;;;;;;;;;;5048769;28;20287;-68
2023/04/30 13:08:54;;;;;;;1.05;1.00;;;;;;;;;;5044715;28;20196;-67
2023/04/30 13:11:24;;;;;;;1.65;0.90;;;;;;;;;;5046362;28;20196;-67
2023/04/30 13:13:59;;;;;;;2.60;0.90;;;;;;;;;;5044065;28;20242;-68
2023/04/30 13:16:27;;;;;;;1.10;1.00;;;;;;;;;;5048751;28;20212;-67
2023/04/30 13:18:54;;;;;;;0.98;0.80;;;;;;;;;;5044001;28;20228;-67
2023/04/30 13:21:21;;;;;;;0.90;0.90;;;;;;;;;;5043173;28;20208;-67
2023/04/30 13:23:48;;;;;;;1.13;0.80;;;;;;;;;;5046040;28;20218;-67
2023/04/30 13:26:16;;;;;;;1.10;1.10;;;;;;;;;;5043367;28;20208;-68
2023/04/30 13:28:43;;;;;;;0.90;0.90;;;;;;;;;;5047281;28;20203;-66
2023/04/30 13:31:11;;;;;;;1.10;1.00;;;;;;;;;;5046598;28;20207;-67
2023/04/30 13:33:38;;;;;;;2.55;1.00;;;;;;;;;;5045184;28;20208;-68
2023/04/30 13:36:06;;;;;;;0.95;0.80;;;;;;;;;;5040749;28;20200;-68
2023/04/30 13:38:33;;;;;;;0.80;0.80;;;;;;;;;;5052971;28;20234;-67
2023/04/30 13:41:00;;;;;;;1.25;1.00;;;;;;;;;;5047503;28;20207;-66
2023/04/30 13:43:27;;;;;;;1.23;0.82;;;;;;;;;;5045370;28;20240;-66
2023/04/30 13:45:54;;;;;;;0.98;0.90;;;;;;;;;;5050078;28;20215;-66
2023/04/30 13:48:23;;;;;;;0.93;0.90;;;;;;;;;;5048145;28;20212;-68
2023/04/30 13:50:50;;;;;;;1.73;1.02;;;;;;;;;;5044084;28;20207;-67
2023/04/30 13:53:17;;;;;;;0.90;0.90;;;;;;;;;;5046850;28;20211;-66
2023/04/30 13:55:44;;;;;;;0.70;0.70;;;;;;;;;;5045287;28;20204;-67
2023/04/30 13:58:12;;;;;;;2.03;0.90;;;;;;;;;;5047380;28;20203;-67
2023/04/30 14:00:39;;;;;;;1.27;1.17;;;;;;;;;;5044197;28;20208;-66
2023/04/30 14:03:07;;;;;;;0.80;0.80;;;;;;;;;;5044337;28;20238;-66
2023/04/30 14:05:36;;;;;;;0.93;0.90;;;;;;;;;;5045593;28;20215;-67
2023/04/30 14:08:03;;;;;;;0.90;0.90;;;;;;;;;;5041430;28;20225;-67
2023/04/30 14:10:30;;;;;;;1.10;1.00;;;;;;;;;;5042477;28;20207;-68
2023/04/30 14:12:57;;;;;;;1.10;1.00;;;;;;;;;;5045050;28;20196;-67
2023/04/30 14:15:24;;;;;;;0.90;0.90;;;;;;;;;;5042092;28;20207;-67
2023/04/30 14:17:52;;;;;;;1.23;0.95;;;;;;;;;;5045791;28;20237;-67
2023/04/30 14:20:19;;;;;;;0.90;0.90;;;;;;;;;;5044397;28;20238;-67
2023/04/30 14:22:47;;;;;;;2.58;1.17;;;;;;;;;;5037691;28;20218;-66
2023/04/30 14:25:15;;;;;;;0.90;0.90;;;;;;;;;;5047988;28;20211;-68
2023/04/30 14:27:42;;;;;;;1.00;1.00;;;;;;;;;;5041740;28;20262;-66
2023/04/30 14:30:10;;;;;;;1.00;1.00;;;;;;;;;;5045665;28;20199;-68
2023/04/30 14:32:37;;;;;;;1.00;1.00;;;;;;;;;;5046474;28;20207;-66
2023/04/30 14:35:04;;;;;;;1.00;1.00;;;;;;;;;;5041490;28;20248;-67
2023/04/30 14:37:32;;;;;;;1.77;1.67;;;;;;;;;;5044246;28;20207;-69